sensor_id;sensor_type;location;lat;lon;timestamp;temperature;humidity
13310;DHT22;6723;48.256;16.402;2023-02-24T00:02:02;10.30;99.90
13310;DHT22;6723;48.256;16.402;2023-02-24T00:04:32;10.30;99.90
13310;DHT22;6723;48.256;16.402;2023-02-24T00:06:59;10.20;99.90
13310;DHT22;6723;48.256;16.402;2023-02-24T00:09:26;10.20;99.90
13310;DHT22;6723;48.256;16.402;2023-02-24T00:12:01;10.30;99.90
13310;DHT22;6723;48.256;16.402;2023-02-24T00:14:32;10.20;99.90
13310;DHT22;6723;48.256;16.402;2023-02-24T00:16:59;10.10;99.90
13310;DHT22;6723;48.256;16.402;2023-02-24T00:19:27;10.00;99.90
13310;DHT22;6723;48.256;16.402;2023-02-24T00:21:54;10.00;99.90
13310;DHT22;6723;48.256;16.402;2023-02-24T00:24:21;9.90;99.90
13310;DHT22;6723;48.256;16.402;2023-02-24T00:26:55;9.90;99.90
13310;DHT22;6723;48.256;16.402;2023-02-24T00:29:25;9.80;99.90
13310;DHT22;6723;48.256;16.402;2023-02-24T00:31:54;9.80;99.90
13310;DHT22;6723;48.256;16.402;2023-02-24T00:34:29;9.80;99.90
13310;DHT22;6723;48.256;16.402;2023-02-24T00:36:56;9.70;99.90
13310;DHT22;6723;48.256;16.402;2023-02-24T00:39:22;9.60;99.90
13310;DHT22;6723;48.256;16.402;2023-02-24T00:41:53;9.50;99.90
13310;DHT22;6723;48.256;16.402;2023-02-24T00:44:31;9.50;99.90
13310;DHT22;6723;48.256;16.402;2023-02-24T00:46:57;9.40;99.90
13310;DHT22;6723;48.256;16.402;2023-02-24T00:49:25;9.30;99.90
13310;DHT22;6723;48.256;16.402;2023-02-24T00:51:51;9.20;99.90
13310;DHT22;6723;48.256;16.402;2023-02-24T00:54:21;9.20;99.90
13310;DHT22;6723;48.256;16.402;2023-02-24T00:56:51;9.20;99.90
13310;DHT22;6723;48.256;16.402;2023-02-24T00:59:18;9.10;99.90
13310;DHT22;6723;48.256;16.402;2023-02-24T01:01:45;9.10;99.90
13310;DHT22;6723;48.256;16.402;2023-02-24T01:04:11;9.10;99.90
13310;DHT22;6723;48.256;16.402;2023-02-24T01:06:43;9.10;99.90
13310;DHT22;6723;48.256;16.402;2023-02-24T01:09:15;9.00;99.90
13310;DHT22;6723;48.256;16.402;2023-02-24T01:11:44;9.00;99.90
13310;DHT22;6723;48.256;16.402;2023-02-24T01:14:30;9.00;99.90
13310;DHT22;6723;48.256;16.402;2023-02-24T01:16:57;8.90;99.90
13310;DHT22;6723;48.256;16.402;2023-02-24T01:19:26;8.90;99.90
13310;DHT22;6723;48.256;16.402;2023-02-24T01:21:57;8.90;99.90
13310;DHT22;6723;48.256;16.402;2023-02-24T01:24:26;8.90;99.90
13310;DHT22;6723;48.256;16.402;2023-02-24T01:26:53;8.90;99.90
13310;DHT22;6723;48.256;16.402;2023-02-24T01:29:19;8.90;99.90
13310;DHT22;6723;48.256;16.402;2023-02-24T01:31:48;8.80;99.90
13310;DHT22;6723;48.256;16.402;2023-02-24T01:34:15;8.90;99.90
13310;DHT22;6723;48.256;16.402;2023-02-24T01:36:42;8.90;99.90
13310;DHT22;6723;48.256;16.402;2023-02-24T01:39:08;8.90;99.90
13310;DHT22;6723;48.256;16.402;2023-02-24T01:41:42;8.90;99.90
13310;DHT22;6723;48.256;16.402;2023-02-24T01:46:44;8.90;99.90
13310;DHT22;6723;48.256;16.402;2023-02-24T01:51:51;8.90;99.90
13310;DHT22;6723;48.256;16.402;2023-02-24T01:54:20;8.90;99.90
13310;DHT22;6723;48.256;16.402;2023-02-24T01:56:50;8.90;99.90
13310;DHT22;6723;48.256;16.402;2023-02-24T01:59:18;8.90;99.90
13310;DHT22;6723;48.256;16.402;2023-02-24T02:01:45;9.00;99.90
13310;DHT22;6723;48.256;16.402;2023-02-24T02:04:22;9.00;99.90
13310;DHT22;6723;48.256;16.402;2023-02-24T02:06:50;9.00;99.90
13310;DHT22;6723;48.256;16.402;2023-02-24T02:09:17;9.00;99.90
13310;DHT22;6723;48.256;16.402;2023-02-24T02:11:43;9.00;99.90
13310;DHT22;6723;48.256;16.402;2023-02-24T02:14:23;9.00;99.90
13310;DHT22;6723;48.256;16.402;2023-02-24T02:20:03;9.00;99.90
13310;DHT22;6723;48.256;16.402;2023-02-24T02:28:41;8.90;99.90
13310;DHT22;6723;48.256;16.402;2023-02-24T02:42:39;8.80;99.90
13310;DHT22;6723;48.256;16.402;2023-02-24T02:48:45;8.70;99.90
13310;DHT22;6723;48.256;16.402;2023-02-24T02:51:04;8.60;99.90
13310;DHT22;6723;48.256;16.402;2023-02-24T02:56:38;8.50;99.90
13310;DHT22;6723;48.256;16.402;2023-02-24T02:59:08;8.50;99.90
13310;DHT22;6723;48.256;16.402;2023-02-24T03:01:39;8.40;99.90
13310;DHT22;6723;48.256;16.402;2023-02-24T03:04:10;8.40;99.90
13310;DHT22;6723;48.256;16.402;2023-02-24T03:07:00;8.30;99.90
13310;DHT22;6723;48.256;16.402;2023-02-24T03:09:30;8.30;99.90
13310;DHT22;6723;48.256;16.402;2023-02-24T03:12:00;8.20;99.90
13310;DHT22;6723;48.256;16.402;2023-02-24T03:14:30;8.10;99.90
13310;DHT22;6723;48.256;16.402;2023-02-24T03:17:04;8.10;99.90
13310;DHT22;6723;48.256;16.402;2023-02-24T03:19:35;8.10;99.90
13310;DHT22;6723;48.256;16.402;2023-02-24T03:22:15;8.10;99.90
13310;DHT22;6723;48.256;16.402;2023-02-24T03:24:43;8.10;99.90
13310;DHT22;6723;48.256;16.402;2023-02-24T03:27:22;8.10;99.90
13310;DHT22;6723;48.256;16.402;2023-02-24T03:29:59;8.10;99.90
13310;DHT22;6723;48.256;16.402;2023-02-24T03:32:38;8.10;99.90
13310;DHT22;6723;48.256;16.402;2023-02-24T03:35:42;8.10;99.90
13310;DHT22;6723;48.256;16.402;2023-02-24T03:38:08;8.10;99.90
13310;DHT22;6723;48.256;16.402;2023-02-24T03:40:39;8.10;99.90
13310;DHT22;6723;48.256;16.402;2023-02-24T03:43:23;8.10;99.90
13310;DHT22;6723;48.256;16.402;2023-02-24T03:46:05;8.10;99.90
13310;DHT22;6723;48.256;16.402;2023-02-24T03:48:32;8.20;99.90
13310;DHT22;6723;48.256;16.402;2023-02-24T03:51:03;8.30;99.90
13310;DHT22;6723;48.256;16.402;2023-02-24T03:56:44;8.30;99.90
13310;DHT22;6723;48.256;16.402;2023-02-24T04:02:21;8.40;99.90
13310;DHT22;6723;48.256;16.402;2023-02-24T04:13:18;8.60;99.90
13310;DHT22;6723;48.256;16.402;2023-02-24T04:15:55;8.60;99.90
13310;DHT22;6723;48.256;16.402;2023-02-24T04:18:31;8.60;99.90
13310;DHT22;6723;48.256;16.402;2023-02-24T04:20:59;8.70;99.90
13310;DHT22;6723;48.256;16.402;2023-02-24T04:23:39;8.80;99.90
13310;DHT22;6723;48.256;16.402;2023-02-24T04:26:09;8.70;99.90
13310;DHT22;6723;48.256;16.402;2023-02-24T04:28:37;8.70;99.90
13310;DHT22;6723;48.256;16.402;2023-02-24T04:31:08;8.80;99.90
13310;DHT22;6723;48.256;16.402;2023-02-24T04:33:44;8.70;99.90
13310;DHT22;6723;48.256;16.402;2023-02-24T04:36:16;8.80;99.90
13310;DHT22;6723;48.256;16.402;2023-02-24T04:38:42;8.80;99.90
13310;DHT22;6723;48.256;16.402;2023-02-24T04:41:11;8.90;99.90
13310;DHT22;6723;48.256;16.402;2023-02-24T04:43:37;8.80;99.90
13310;DHT22;6723;48.256;16.402;2023-02-24T04:46:03;8.70;99.90
13310;DHT22;6723;48.256;16.402;2023-02-24T04:48:36;8.70;99.90
13310;DHT22;6723;48.256;16.402;2023-02-24T04:51:03;8.60;99.90
13310;DHT22;6723;48.256;16.402;2023-02-24T04:53:31;8.50;99.90
13310;DHT22;6723;48.256;16.402;2023-02-24T04:56:01;8.50;99.90
13310;DHT22;6723;48.256;16.402;2023-02-24T04:58:33;8.50;99.90
13310;DHT22;6723;48.256;16.402;2023-02-24T05:01:00;8.50;99.90
13310;DHT22;6723;48.256;16.402;2023-02-24T05:03:32;8.50;99.90
13310;DHT22;6723;48.256;16.402;2023-02-24T05:06:00;8.50;99.90
13310;DHT22;6723;48.256;16.402;2023-02-24T05:08:27;8.50;99.90
13310;DHT22;6723;48.256;16.402;2023-02-24T05:10:56;8.50;99.90
13310;DHT22;6723;48.256;16.402;2023-02-24T05:13:27;8.50;99.90
13310;DHT22;6723;48.256;16.402;2023-02-24T05:16:05;8.60;99.90
13310;DHT22;6723;48.256;16.402;2023-02-24T05:18:34;8.50;99.90
13310;DHT22;6723;48.256;16.402;2023-02-24T05:21:07;8.50;99.90
13310;DHT22;6723;48.256;16.402;2023-02-24T05:23:52;8.50;99.90
13310;DHT22;6723;48.256;16.402;2023-02-24T05:26:21;8.50;99.90
13310;DHT22;6723;48.256;16.402;2023-02-24T05:28:51;8.50;99.90
13310;DHT22;6723;48.256;16.402;2023-02-24T05:31:20;8.50;99.90
13310;DHT22;6723;48.256;16.402;2023-02-24T05:33:50;8.50;99.90
13310;DHT22;6723;48.256;16.402;2023-02-24T05:36:20;8.50;99.90
13310;DHT22;6723;48.256;16.402;2023-02-24T05:38:51;8.40;99.90
13310;DHT22;6723;48.256;16.402;2023-02-24T05:41:23;8.40;99.90
13310;DHT22;6723;48.256;16.402;2023-02-24T05:44:02;8.40;99.90
13310;DHT22;6723;48.256;16.402;2023-02-24T05:46:36;8.30;99.90
13310;DHT22;6723;48.256;16.402;2023-02-24T05:49:04;8.30;99.90
13310;DHT22;6723;48.256;16.402;2023-02-24T05:51:35;8.20;99.90
13310;DHT22;6723;48.256;16.402;2023-02-24T05:54:07;8.20;99.90
13310;DHT22;6723;48.256;16.402;2023-02-24T05:56:36;8.30;99.90
13310;DHT22;6723;48.256;16.402;2023-02-24T05:59:07;8.20;99.90
13310;DHT22;6723;48.256;16.402;2023-02-24T06:01:36;8.30;99.90
13310;DHT22;6723;48.256;16.402;2023-02-24T06:04:04;8.20;99.90
13310;DHT22;6723;48.256;16.402;2023-02-24T06:06:32;8.30;99.90
13310;DHT22;6723;48.256;16.402;2023-02-24T06:09:01;8.30;99.90
13310;DHT22;6723;48.256;16.402;2023-02-24T06:11:32;8.30;99.90
13310;DHT22;6723;48.256;16.402;2023-02-24T06:14:01;8.30;99.90
13310;DHT22;6723;48.256;16.402;2023-02-24T06:16:27;8.30;99.90
13310;DHT22;6723;48.256;16.402;2023-02-24T06:19:07;8.30;99.90
13310;DHT22;6723;48.256;16.402;2023-02-24T06:21:53;8.30;99.90
13310;DHT22;6723;48.256;16.402;2023-02-24T06:24:46;8.20;99.90
13310;DHT22;6723;48.256;16.402;2023-02-24T06:27:16;8.20;99.90
13310;DHT22;6723;48.256;16.402;2023-02-24T06:29:51;8.10;99.90
13310;DHT22;6723;48.256;16.402;2023-02-24T06:32:29;8.20;99.90
13310;DHT22;6723;48.256;16.402;2023-02-24T06:35:11;8.30;99.90
13310;DHT22;6723;48.256;16.402;2023-02-24T06:37:49;8.30;99.90
13310;DHT22;6723;48.256;16.402;2023-02-24T06:40:16;8.30;99.90
13310;DHT22;6723;48.256;16.402;2023-02-24T06:42:49;8.50;99.90
13310;DHT22;6723;48.256;16.402;2023-02-24T06:45:23;8.60;99.90
13310;DHT22;6723;48.256;16.402;2023-02-24T06:47:53;8.70;99.90
13310;DHT22;6723;48.256;16.402;2023-02-24T06:50:19;8.80;99.90
13310;DHT22;6723;48.256;16.402;2023-02-24T06:52:53;9.00;99.90
13310;DHT22;6723;48.256;16.402;2023-02-24T06:55:19;9.30;99.90
13310;DHT22;6723;48.256;16.402;2023-02-24T06:58:03;9.20;99.90
13310;DHT22;6723;48.256;16.402;2023-02-24T07:00:33;9.20;99.90
13310;DHT22;6723;48.256;16.402;2023-02-24T07:03:08;9.20;99.90
13310;DHT22;6723;48.256;16.402;2023-02-24T07:05:45;9.40;99.90
13310;DHT22;6723;48.256;16.402;2023-02-24T07:08:45;9.50;99.90
13310;DHT22;6723;48.256;16.402;2023-02-24T07:11:14;9.50;99.90
13310;DHT22;6723;48.256;16.402;2023-02-24T07:13:50;9.70;99.90
13310;DHT22;6723;48.256;16.402;2023-02-24T07:16:20;10.00;99.90
13310;DHT22;6723;48.256;16.402;2023-02-24T07:18:53;10.30;99.90
13310;DHT22;6723;48.256;16.402;2023-02-24T07:21:22;10.70;99.90
13310;DHT22;6723;48.256;16.402;2023-02-24T07:23:49;11.30;99.90
13310;DHT22;6723;48.256;16.402;2023-02-24T07:26:22;11.90;99.90
13310;DHT22;6723;48.256;16.402;2023-02-24T07:28:49;12.40;99.90
13310;DHT22;6723;48.256;16.402;2023-02-24T07:31:17;13.00;99.90
13310;DHT22;6723;48.256;16.402;2023-02-24T07:33:44;12.90;99.90
13310;DHT22;6723;48.256;16.402;2023-02-24T07:36:13;12.70;99.90
13310;DHT22;6723;48.256;16.402;2023-02-24T07:38:52;12.50;99.90
13310;DHT22;6723;48.256;16.402;2023-02-24T07:41:20;13.00;99.90
13310;DHT22;6723;48.256;16.402;2023-02-24T07:43:52;12.80;99.90
13310;DHT22;6723;48.256;16.402;2023-02-24T07:46:24;13.00;99.90
13310;DHT22;6723;48.256;16.402;2023-02-24T07:48:51;13.10;99.90
13310;DHT22;6723;48.256;16.402;2023-02-24T07:51:23;13.40;99.90
13310;DHT22;6723;48.256;16.402;2023-02-24T07:53:51;13.60;99.90
13310;DHT22;6723;48.256;16.402;2023-02-24T07:56:22;13.80;99.90
13310;DHT22;6723;48.256;16.402;2023-02-24T07:58:53;14.00;99.90
13310;DHT22;6723;48.256;16.402;2023-02-24T08:01:29;14.40;99.90
13310;DHT22;6723;48.256;16.402;2023-02-24T08:03:56;14.70;99.90
13310;DHT22;6723;48.256;16.402;2023-02-24T08:06:23;15.30;99.90
13310;DHT22;6723;48.256;16.402;2023-02-24T08:09:08;15.70;99.90
13310;DHT22;6723;48.256;16.402;2023-02-24T08:11:48;16.00;99.90
13310;DHT22;6723;48.256;16.402;2023-02-24T08:14:18;16.00;99.90
13310;DHT22;6723;48.256;16.402;2023-02-24T08:16:47;16.10;99.90
13310;DHT22;6723;48.256;16.402;2023-02-24T08:19:16;16.30;99.90
13310;DHT22;6723;48.256;16.402;2023-02-24T08:21:47;16.30;99.90
13310;DHT22;6723;48.256;16.402;2023-02-24T08:24:19;15.80;99.90
13310;DHT22;6723;48.256;16.402;2023-02-24T08:26:50;15.60;99.90
13310;DHT22;6723;48.256;16.402;2023-02-24T08:29:33;15.70;99.90
13310;DHT22;6723;48.256;16.402;2023-02-24T08:32:08;15.80;99.90
13310;DHT22;6723;48.256;16.402;2023-02-24T08:34:38;15.80;99.90
13310;DHT22;6723;48.256;16.402;2023-02-24T08:37:04;15.80;99.90
13310;DHT22;6723;48.256;16.402;2023-02-24T08:39:30;15.60;99.90
13310;DHT22;6723;48.256;16.402;2023-02-24T08:42:01;15.50;99.90
13310;DHT22;6723;48.256;16.402;2023-02-24T08:44:27;15.50;99.90
13310;DHT22;6723;48.256;16.402;2023-02-24T08:46:54;15.40;99.90
13310;DHT22;6723;48.256;16.402;2023-02-24T08:49:21;15.40;99.90
13310;DHT22;6723;48.256;16.402;2023-02-24T08:51:52;15.70;99.90
13310;DHT22;6723;48.256;16.402;2023-02-24T08:54:21;15.50;99.90
13310;DHT22;6723;48.256;16.402;2023-02-24T08:56:53;15.80;99.90
13310;DHT22;6723;48.256;16.402;2023-02-24T08:59:24;15.70;99.90
13310;DHT22;6723;48.256;16.402;2023-02-24T09:01:58;15.60;99.90
13310;DHT22;6723;48.256;16.402;2023-02-24T09:05:06;15.50;99.90
13310;DHT22;6723;48.256;16.402;2023-02-24T09:07:40;15.50;99.90
13310;DHT22;6723;48.256;16.402;2023-02-24T09:10:14;15.20;99.90
13310;DHT22;6723;48.256;16.402;2023-02-24T09:12:42;15.10;99.90
13310;DHT22;6723;48.256;16.402;2023-02-24T09:15:12;15.00;99.90
13310;DHT22;6723;48.256;16.402;2023-02-24T09:17:43;15.00;99.90
13310;DHT22;6723;48.256;16.402;2023-02-24T09:20:22;15.10;99.90
13310;DHT22;6723;48.256;16.402;2023-02-24T09:23:12;15.60;99.90
13310;DHT22;6723;48.256;16.402;2023-02-24T09:25:45;15.90;99.90
13310;DHT22;6723;48.256;16.402;2023-02-24T09:28:19;16.20;99.90
13310;DHT22;6723;48.256;16.402;2023-02-24T09:30:57;16.60;99.90
13310;DHT22;6723;48.256;16.402;2023-02-24T09:33:34;16.90;99.90
13310;DHT22;6723;48.256;16.402;2023-02-24T09:36:13;17.00;99.90
13310;DHT22;6723;48.256;16.402;2023-02-24T09:38:59;17.20;99.90
13310;DHT22;6723;48.256;16.402;2023-02-24T09:42:10;17.40;99.90
13310;DHT22;6723;48.256;16.402;2023-02-24T09:44:34;17.70;99.90
13310;DHT22;6723;48.256;16.402;2023-02-24T09:49:53;18.50;99.90
13310;DHT22;6723;48.256;16.402;2023-02-24T09:52:29;18.70;99.90
13310;DHT22;6723;48.256;16.402;2023-02-24T09:58:17;18.70;99.90
13310;DHT22;6723;48.256;16.402;2023-02-24T10:01:35;18.60;99.90
13310;DHT22;6723;48.256;16.402;2023-02-24T10:07:04;18.50;99.90
13310;DHT22;6723;48.256;16.402;2023-02-24T10:09:35;18.20;99.90
13310;DHT22;6723;48.256;16.402;2023-02-24T10:20:56;18.30;99.90
13310;DHT22;6723;48.256;16.402;2023-02-24T10:26:12;18.90;99.80
13310;DHT22;6723;48.256;16.402;2023-02-24T10:29:28;19.50;96.90
13310;DHT22;6723;48.256;16.402;2023-02-24T10:34:49;22.00;95.10
13310;DHT22;6723;48.256;16.402;2023-02-24T10:37:18;23.40;94.00
13310;DHT22;6723;48.256;16.402;2023-02-24T10:39:46;24.30;93.10
13310;DHT22;6723;48.256;16.402;2023-02-24T10:42:30;25.20;90.20
13310;DHT22;6723;48.256;16.402;2023-02-24T10:47:37;25.30;85.30
13310;DHT22;6723;48.256;16.402;2023-02-24T10:50:39;24.50;83.90
13310;DHT22;6723;48.256;16.402;2023-02-24T10:53:12;23.50;86.30
13310;DHT22;6723;48.256;16.402;2023-02-24T10:55:51;21.90;88.40
13310;DHT22;6723;48.256;16.402;2023-02-24T10:58:31;20.90;88.30
13310;DHT22;6723;48.256;16.402;2023-02-24T11:01:17;20.10;89.60
13310;DHT22;6723;48.256;16.402;2023-02-24T11:03:59;20.10;90.80
13310;DHT22;6723;48.256;16.402;2023-02-24T11:06:48;19.60;90.70
13310;DHT22;6723;48.256;16.402;2023-02-24T11:09:24;19.60;91.00
13310;DHT22;6723;48.256;16.402;2023-02-24T11:11:55;19.60;91.20
13310;DHT22;6723;48.256;16.402;2023-02-24T11:17:58;19.10;90.00
13310;DHT22;6723;48.256;16.402;2023-02-24T11:20:37;18.60;90.70
13310;DHT22;6723;48.256;16.402;2023-02-24T11:23:07;18.30;91.20
13310;DHT22;6723;48.256;16.402;2023-02-24T11:25:35;17.80;91.80
13310;DHT22;6723;48.256;16.402;2023-02-24T11:28:53;17.70;92.30
13310;DHT22;6723;48.256;16.402;2023-02-24T11:30:53;17.70;92.70
13310;DHT22;6723;48.256;16.402;2023-02-24T11:33:45;17.40;92.80
13310;DHT22;6723;48.256;16.402;2023-02-24T11:36:29;17.20;92.90
13310;DHT22;6723;48.256;16.402;2023-02-24T11:41:51;17.00;93.20
13310;DHT22;6723;48.256;16.402;2023-02-24T11:47:09;16.90;94.40
13310;DHT22;6723;48.256;16.402;2023-02-24T11:49:54;16.90;94.00
13310;DHT22;6723;48.256;16.402;2023-02-24T11:52:32;17.00;94.30
13310;DHT22;6723;48.256;16.402;2023-02-24T11:55:00;17.10;94.40
13310;DHT22;6723;48.256;16.402;2023-02-24T11:57:35;17.20;94.40
13310;DHT22;6723;48.256;16.402;2023-02-24T12:00:04;17.40;94.50
13310;DHT22;6723;48.256;16.402;2023-02-24T12:05:40;17.60;93.90
13310;DHT22;6723;48.256;16.402;2023-02-24T12:16:50;17.80;92.20
13310;DHT22;6723;48.256;16.402;2023-02-24T12:19:31;17.80;92.70
13310;DHT22;6723;48.256;16.402;2023-02-24T12:22:04;17.80;92.80
13310;DHT22;6723;48.256;16.402;2023-02-24T12:24:34;17.90;93.10
13310;DHT22;6723;48.256;16.402;2023-02-24T12:35:48;17.80;93.80
13310;DHT22;6723;48.256;16.402;2023-02-24T12:38:57;17.60;94.00
13310;DHT22;6723;48.256;16.402;2023-02-24T12:41:42;17.50;94.10
13310;DHT22;6723;48.256;16.402;2023-02-24T13:00:15;17.80;94.00
13310;DHT22;6723;48.256;16.402;2023-02-24T13:05:38;17.80;93.10
13310;DHT22;6723;48.256;16.402;2023-02-24T13:08:50;17.80;93.50
13310;DHT22;6723;48.256;16.402;2023-02-24T13:16:31;17.50;92.50
13310;DHT22;6723;48.256;16.402;2023-02-24T13:19:18;17.40;92.10
13310;DHT22;6723;48.256;16.402;2023-02-24T13:24:22;17.20;92.30
13310;DHT22;6723;48.256;16.402;2023-02-24T13:26:49;16.90;91.80
13310;DHT22;6723;48.256;16.402;2023-02-24T13:29:15;16.70;91.50
13310;DHT22;6723;48.256;16.402;2023-02-24T13:31:44;16.50;90.80
13310;DHT22;6723;48.256;16.402;2023-02-24T13:34:13;16.40;90.80
13310;DHT22;6723;48.256;16.402;2023-02-24T13:36:49;16.20;90.60
13310;DHT22;6723;48.256;16.402;2023-02-24T13:39:22;16.00;90.30
13310;DHT22;6723;48.256;16.402;2023-02-24T13:42:43;15.90;90.30
13310;DHT22;6723;48.256;16.402;2023-02-24T13:45:17;15.90;90.50
13310;DHT22;6723;48.256;16.402;2023-02-24T13:50:39;15.80;91.00
13310;DHT22;6723;48.256;16.402;2023-02-24T14:02:14;15.60;90.70
13310;DHT22;6723;48.256;16.402;2023-02-24T14:04:50;15.50;90.90
13310;DHT22;6723;48.256;16.402;2023-02-24T14:07:23;15.50;91.40
13310;DHT22;6723;48.256;16.402;2023-02-24T14:09:56;15.50;91.40
13310;DHT22;6723;48.256;16.402;2023-02-24T14:12:34;15.50;91.60
13310;DHT22;6723;48.256;16.402;2023-02-24T14:15:02;15.50;91.70
13310;DHT22;6723;48.256;16.402;2023-02-24T14:17:36;15.50;91.70
13310;DHT22;6723;48.256;16.402;2023-02-24T14:20:17;15.50;91.70
13310;DHT22;6723;48.256;16.402;2023-02-24T14:22:49;15.40;91.60
13310;DHT22;6723;48.256;16.402;2023-02-24T14:25:18;15.30;91.60
13310;DHT22;6723;48.256;16.402;2023-02-24T14:27:48;15.40;91.80
13310;DHT22;6723;48.256;16.402;2023-02-24T14:30:31;15.30;92.00
13310;DHT22;6723;48.256;16.402;2023-02-24T14:32:58;15.30;92.10
13310;DHT22;6723;48.256;16.402;2023-02-24T14:35:33;15.20;91.60
13310;DHT22;6723;48.256;16.402;2023-02-24T14:38:01;15.10;91.90
13310;DHT22;6723;48.256;16.402;2023-02-24T14:40:27;15.20;92.70
13310;DHT22;6723;48.256;16.402;2023-02-24T14:42:54;15.10;92.00
13310;DHT22;6723;48.256;16.402;2023-02-24T14:45:25;15.10;92.30
13310;DHT22;6723;48.256;16.402;2023-02-24T14:47:53;15.00;92.10
13310;DHT22;6723;48.256;16.402;2023-02-24T14:50:29;15.00;92.10
13310;DHT22;6723;48.256;16.402;2023-02-24T14:53:06;15.00;92.20
13310;DHT22;6723;48.256;16.402;2023-02-24T14:55:37;15.00;92.50
13310;DHT22;6723;48.256;16.402;2023-02-24T15:05:45;14.90;92.60
13310;DHT22;6723;48.256;16.402;2023-02-24T15:10:56;14.80;92.70
13310;DHT22;6723;48.256;16.402;2023-02-24T15:13:34;14.70;92.80
13310;DHT22;6723;48.256;16.402;2023-02-24T15:16:11;14.70;93.00
13310;DHT22;6723;48.256;16.402;2023-02-24T15:18:38;14.60;93.00
13310;DHT22;6723;48.256;16.402;2023-02-24T15:21:06;14.60;93.20
13310;DHT22;6723;48.256;16.402;2023-02-24T15:23:35;14.60;93.20
13310;DHT22;6723;48.256;16.402;2023-02-24T15:26:02;14.50;93.20
13310;DHT22;6723;48.256;16.402;2023-02-24T15:28:32;14.40;93.30
13310;DHT22;6723;48.256;16.402;2023-02-24T15:31:16;14.40;93.40
13310;DHT22;6723;48.256;16.402;2023-02-24T15:33:45;14.40;93.60
13310;DHT22;6723;48.256;16.402;2023-02-24T15:36:19;14.30;93.60
13310;DHT22;6723;48.256;16.402;2023-02-24T15:38:50;14.30;94.10
13310;DHT22;6723;48.256;16.402;2023-02-24T15:41:44;14.30;93.90
13310;DHT22;6723;48.256;16.402;2023-02-24T15:44:30;14.20;94.00
13310;DHT22;6723;48.256;16.402;2023-02-24T15:46:58;14.20;94.10
13310;DHT22;6723;48.256;16.402;2023-02-24T15:49:24;14.20;94.00
13310;DHT22;6723;48.256;16.402;2023-02-24T15:51:54;14.30;94.10
13310;DHT22;6723;48.256;16.402;2023-02-24T15:54:42;14.30;94.10
13310;DHT22;6723;48.256;16.402;2023-02-24T15:57:14;14.20;94.20
13310;DHT22;6723;48.256;16.402;2023-02-24T15:59:41;14.20;94.40
13310;DHT22;6723;48.256;16.402;2023-02-24T16:02:16;14.10;94.20
13310;DHT22;6723;48.256;16.402;2023-02-24T16:04:43;14.10;94.40
13310;DHT22;6723;48.256;16.402;2023-02-24T16:07:23;14.10;94.50
13310;DHT22;6723;48.256;16.402;2023-02-24T16:09:51;14.00;94.40
13310;DHT22;6723;48.256;16.402;2023-02-24T16:12:25;14.00;94.50
13310;DHT22;6723;48.256;16.402;2023-02-24T16:14:57;14.00;94.50
13310;DHT22;6723;48.256;16.402;2023-02-24T16:17:39;14.00;94.70
13310;DHT22;6723;48.256;16.402;2023-02-24T16:20:23;13.90;94.60
13310;DHT22;6723;48.256;16.402;2023-02-24T16:23:11;13.90;94.80
13310;DHT22;6723;48.256;16.402;2023-02-24T16:25:41;13.80;94.80
13310;DHT22;6723;48.256;16.402;2023-02-24T16:28:18;13.80;94.80
13310;DHT22;6723;48.256;16.402;2023-02-24T16:30:44;13.80;94.80
13310;DHT22;6723;48.256;16.402;2023-02-24T16:33:11;13.80;94.80
13310;DHT22;6723;48.256;16.402;2023-02-24T16:35:38;13.80;94.90
13310;DHT22;6723;48.256;16.402;2023-02-24T16:38:14;13.80;94.90
13310;DHT22;6723;48.256;16.402;2023-02-24T16:40:43;13.70;95.00
13310;DHT22;6723;48.256;16.402;2023-02-24T16:43:11;13.70;95.10
13310;DHT22;6723;48.256;16.402;2023-02-24T16:45:38;13.70;95.20
13310;DHT22;6723;48.256;16.402;2023-02-24T16:48:20;13.60;95.30
13310;DHT22;6723;48.256;16.402;2023-02-24T16:50:47;13.50;95.40
13310;DHT22;6723;48.256;16.402;2023-02-24T16:53:15;13.50;95.60
13310;DHT22;6723;48.256;16.402;2023-02-24T16:55:42;13.60;95.80
13310;DHT22;6723;48.256;16.402;2023-02-24T16:58:09;13.50;96.00
13310;DHT22;6723;48.256;16.402;2023-02-24T17:00:45;13.50;96.00
13310;DHT22;6723;48.256;16.402;2023-02-24T17:03:21;13.50;95.80
13310;DHT22;6723;48.256;16.402;2023-02-24T17:05:51;13.50;95.90
13310;DHT22;6723;48.256;16.402;2023-02-24T17:08:17;13.40;96.10
13310;DHT22;6723;48.256;16.402;2023-02-24T17:10:43;13.40;96.20
13310;DHT22;6723;48.256;16.402;2023-02-24T17:13:18;13.40;96.30
13310;DHT22;6723;48.256;16.402;2023-02-24T17:15:44;13.40;96.40
13310;DHT22;6723;48.256;16.402;2023-02-24T17:18:10;13.40;96.70
13310;DHT22;6723;48.256;16.402;2023-02-24T17:20:37;13.40;97.30
13310;DHT22;6723;48.256;16.402;2023-02-24T17:23:03;13.40;97.50
13310;DHT22;6723;48.256;16.402;2023-02-24T17:25:30;13.30;96.80
13310;DHT22;6723;48.256;16.402;2023-02-24T17:27:56;13.30;96.90
13310;DHT22;6723;48.256;16.402;2023-02-24T17:30:33;13.30;96.70
13310;DHT22;6723;48.256;16.402;2023-02-24T17:33:01;13.30;96.80
13310;DHT22;6723;48.256;16.402;2023-02-24T17:35:28;13.30;96.60
13310;DHT22;6723;48.256;16.402;2023-02-24T17:37:54;13.30;96.60
13310;DHT22;6723;48.256;16.402;2023-02-24T17:40:24;13.20;96.70
13310;DHT22;6723;48.256;16.402;2023-02-24T17:43:04;13.20;96.50
13310;DHT22;6723;48.256;16.402;2023-02-24T17:45:45;13.30;96.50
13310;DHT22;6723;48.256;16.402;2023-02-24T17:48:48;13.30;96.80
13310;DHT22;6723;48.256;16.402;2023-02-24T17:51:18;13.20;96.90
13310;DHT22;6723;48.256;16.402;2023-02-24T17:53:44;13.10;97.30
13310;DHT22;6723;48.256;16.402;2023-02-24T17:56:10;13.10;97.10
13310;DHT22;6723;48.256;16.402;2023-02-24T17:58:37;13.10;97.10
13310;DHT22;6723;48.256;16.402;2023-02-24T18:01:04;13.10;97.00
13310;DHT22;6723;48.256;16.402;2023-02-24T18:03:34;13.00;97.10
13310;DHT22;6723;48.256;16.402;2023-02-24T18:06:09;13.10;97.20
13310;DHT22;6723;48.256;16.402;2023-02-24T18:08:36;13.10;97.10
13310;DHT22;6723;48.256;16.402;2023-02-24T18:11:04;13.10;97.40
13310;DHT22;6723;48.256;16.402;2023-02-24T18:13:31;13.10;97.20
13310;DHT22;6723;48.256;16.402;2023-02-24T18:15:57;13.00;97.20
13310;DHT22;6723;48.256;16.402;2023-02-24T18:18:24;13.00;97.30
13310;DHT22;6723;48.256;16.402;2023-02-24T18:20:50;13.00;97.30
13310;DHT22;6723;48.256;16.402;2023-02-24T18:23:16;12.90;97.30
13310;DHT22;6723;48.256;16.402;2023-02-24T18:25:42;12.90;97.30
13310;DHT22;6723;48.256;16.402;2023-02-24T18:28:08;12.90;97.30
13310;DHT22;6723;48.256;16.402;2023-02-24T18:30:34;12.90;97.30
13310;DHT22;6723;48.256;16.402;2023-02-24T18:32:59;12.90;97.30
13310;DHT22;6723;48.256;16.402;2023-02-24T18:35:25;13.00;97.20
13310;DHT22;6723;48.256;16.402;2023-02-24T18:37:53;12.90;97.30
13310;DHT22;6723;48.256;16.402;2023-02-24T18:40:26;12.90;97.20
13310;DHT22;6723;48.256;16.402;2023-02-24T18:42:52;12.80;97.30
13310;DHT22;6723;48.256;16.402;2023-02-24T18:45:19;12.80;97.40